createdAt,value
2024-02-06T09:47:07.472Z,281.25
2024-02-06T09:48:08.588Z,337.50
2024-02-06T09:49:08.657Z,371.25
2024-02-06T09:50:08.722Z,354.38
2024-02-06T09:51:08.776Z,360.00
2024-02-06T09:52:08.849Z,309.38
2024-02-06T09:53:08.880Z,343.12
2024-02-06T09:54:08.983Z,376.88
2024-02-06T09:55:09.066Z,326.25
2024-02-06T09:56:09.148Z,264.38
2024-02-06T11:22:33.488Z,129.38
2024-02-06T11:36:17.505Z,157.50
2024-02-06T11:37:18.625Z,168.75
2024-02-06T11:38:18.637Z,168.75
2024-02-06T11:41:50.463Z,191.25
2024-02-06T11:42:51.535Z,196.88
2024-02-06T11:43:51.653Z,174.38
2024-02-06T11:50:36.604Z,247.50
2024-02-06T11:51:36.065Z,326.25
2024-02-06T11:52:36.178Z,241.88
2024-02-06T11:53:36.211Z,371.25
2024-02-06T11:54:36.301Z,405.00
2024-02-06T11:55:37.472Z,320.62
2024-02-06T11:56:37.317Z,388.12
2024-02-06T11:57:36.543Z,568.12
2024-02-06T11:58:37.605Z,607.50
2024-02-06T11:59:36.764Z,573.75
2024-02-06T12:00:36.835Z,371.25
2024-02-06T12:01:39.083Z,438.75
2024-02-06T12:02:37.042Z,315.00
2024-02-06T12:03:37.173Z,253.12
2024-02-06T12:04:37.276Z,163.12
2024-02-06T12:05:37.416Z,174.38
2024-02-06T12:06:37.470Z,140.62
2024-02-06T12:07:37.714Z,146.25
2024-02-06T12:14:51.480Z,191.25
2024-02-06T12:15:52.554Z,213.75
2024-02-06T12:16:52.793Z,163.12
2024-02-06T12:31:16.531Z,208.12
2024-02-06T12:32:17.639Z,191.25
2024-02-06T12:33:17.829Z,146.25
2024-02-06T12:50:15.570Z,213.75
2024-02-06T12:51:16.563Z,202.50
2024-02-06T12:52:16.705Z,168.75
2024-02-06T14:11:57.703Z,112.50
2024-02-06T14:12:58.783Z,118.12
2024-02-06T14:13:58.876Z,90.00
2024-02-06T14:26:24.362Z,168.75
2024-02-06T14:27:25.430Z,135.00
2024-02-06T14:28:25.535Z,84.38
2024-02-06T14:42:08.495Z,140.62
2024-02-06T14:43:09.527Z,112.50
2024-02-06T14:44:09.563Z,118.12
